Time;durP1;ratioP1;P1;durP2;ratioP2;P2;SDS_P1;SDS_P2;PMS_P1;PMS_P2;Temp;Humidity;BMP_temperature;BMP_pressure;BME280_temperature;BME280_humidity;BME280_pressure;Samples;Min_cycle;Max_cycle;Signal;HPM_P1;HPM_P2
2023/01/29 00:01:10;;;;;;;29.43;4.47;;;;;;;23.14;54.43;100560.88;7304814;19;129625;-39
2023/01/29 00:03:35;;;;;;;40.47;4.67;;;;;;;23.15;55.04;100559.94;7303807;19;129335;-38
2023/01/29 00:06:06;;;;;;;30.42;3.92;;;;;;;23.15;55.04;100554.69;7301649;19;129425;-38
2023/01/29 00:08:35;;;;;;;41.88;5.00;;;;;;;23.14;55.01;100553.00;7302655;19;130250;-39
2023/01/29 00:11:06;;;;;;;28.77;3.58;;;;;;;23.14;55.08;100545.97;7305147;19;129472;-37
2023/01/29 00:13:33;;;;;;;46.58;5.40;;;;;;;23.12;54.80;100557.56;7311757;19;129817;-40
2023/01/29 00:15:59;;;;;;;45.53;5.18;;;;;;;23.12;55.50;100554.94;7308211;19;130993;-40
2023/01/29 00:18:25;;;;;;;41.93;4.87;;;;;;;23.12;55.03;100539.22;7311619;19;131363;-38
2023/01/29 00:20:51;;;;;;;21.88;3.22;;;;;;;23.10;54.91;100546.38;7310075;19;129910;-39
2023/01/29 00:23:16;;;;;;;52.67;6.00;;;;;;;23.09;54.54;100549.94;7311267;19;129468;-38
2023/01/29 00:25:42;;;;;;;27.70;4.03;;;;;;;23.08;54.46;100536.00;7308202;19;129722;-39
2023/01/29 00:28:08;;;;;;;56.70;6.53;;;;;;;23.09;54.65;100545.53;7307720;19;130311;-39
2023/01/29 00:30:35;;;;;;;26.97;3.40;;;;;;;23.08;55.35;100532.53;7308767;19;129776;-40
2023/01/29 00:33:01;;;;;;;35.70;4.15;;;;;;;23.06;55.24;100526.59;7310901;19;129516;-38
2023/01/29 00:35:26;;;;;;;71.53;8.57;;;;;;;23.07;55.05;100525.66;7308185;19;129486;-40
2023/01/29 00:37:54;;;;;;;38.87;4.60;;;;;;;23.06;55.35;100526.59;7309053;19;129682;-42
2023/01/29 00:40:19;;;;;;;46.63;5.53;;;;;;;23.05;54.75;100538.03;7309723;19;129401;-37
2023/01/29 00:45:29;;;;;;;53.53;5.93;;;;;;;23.04;55.21;100525.88;7307337;19;129268;-37
2023/01/29 00:47:54;;;;;;;37.73;4.50;;;;;;;23.02;54.60;100523.38;7310085;19;130305;-38
2023/01/29 00:50:20;;;;;;;45.43;5.40;;;;;;;23.02;55.05;100530.44;7308836;19;129331;-37
2023/01/29 00:52:47;;;;;;;39.70;5.15;;;;;;;23.02;55.38;100527.81;7310856;19;129640;-38
2023/01/29 00:55:12;;;;;;;46.30;5.28;;;;;;;22.91;54.22;100517.34;7308950;19;130236;-38
2023/01/29 00:57:38;;;;;;;34.23;4.03;;;;;;;23.00;55.30;100524.47;7308048;19;129132;-38
2023/01/29 01:00:06;;;;;;;34.40;3.92;;;;;;;22.98;55.02;100521.97;7308569;19;129402;-39
2023/01/29 01:05:17;;;;;;;30.23;4.00;;;;;;;22.98;55.13;100531.63;7309790;19;131044;-39
2023/01/29 01:07:47;;;;;;;46.30;5.05;;;;;;;22.94;55.19;100525.81;7307822;19;130526;-39
2023/01/29 01:10:23;;;;;;;35.38;4.68;;;;;;;22.96;55.51;100544.03;7310721;19;129712;-38
2023/01/29 01:12:57;;;;;;;46.63;5.03;;;;;;;22.94;55.70;100538.91;7308806;19;130036;-41
2023/01/29 01:15:27;;;;;;;63.45;7.72;;;;;;;22.95;55.03;100542.38;7306817;19;129451;-39
2023/01/29 01:17:57;;;;;;;41.88;4.53;;;;;;;22.94;55.45;100535.47;7308567;19;129942;-40
2023/01/29 01:20:25;;;;;;;48.10;5.15;;;;;;;22.92;55.46;100535.56;7309160;19;129028;-38
2023/01/29 01:22:52;;;;;;;42.47;4.70;;;;;;;22.92;54.96;100537.38;7310407;19;129802;-40
2023/01/29 01:25:17;;;;;;;42.25;4.72;;;;;;;22.90;54.85;100527.03;7306570;19;130153;-39
2023/01/29 01:27:43;;;;;;;79.13;8.37;;;;;;;22.90;55.50;100521.78;7305204;19;129461;-41
2023/01/29 01:30:14;;;;;;;59.13;6.07;;;;;;;22.91;55.38;100519.97;7305487;19;130040;-38
2023/01/29 01:32:40;;;;;;;30.58;3.63;;;;;;;22.89;55.18;100527.16;7310372;19;129018;-37
2023/01/29 01:35:07;;;;;;;35.83;4.03;;;;;;;22.89;55.14;100524.53;7308806;19;129434;-40
2023/01/29 01:37:32;;;;;;;39.83;4.80;;;;;;;22.87;54.94;100526.44;7306691;19;130493;-40
2023/01/29 01:39:58;;;;;;;38.53;4.25;;;;;;;22.88;55.28;100520.22;7307806;19;129151;-41
2023/01/29 01:42:29;;;;;;;43.03;5.10;;;;;;;22.85;55.54;100521.31;7308791;19;129510;-36
2023/01/29 01:45:00;;;;;;;40.03;4.38;;;;;;;22.85;55.45;100508.22;7308344;19;129939;-37
2023/01/29 01:47:39;;;;;;;29.25;3.38;;;;;;;22.86;55.54;100507.25;7305653;19;130338;-37
2023/01/29 01:50:12;;;;;;;39.58;4.18;;;;;;;22.86;55.88;100506.41;7309046;19;129169;-39
2023/01/29 01:52:42;;;;;;;54.75;5.72;;;;;;;22.84;55.75;100508.34;7308022;19;130086;-41
2023/01/29 01:55:12;;;;;;;48.80;5.22;;;;;;;22.82;55.48;100510.25;7306280;19;129704;-38
2023/01/29 01:57:39;;;;;;;31.27;3.83;;;;;;;22.78;55.16;100514.91;7305947;19;129816;-39
2023/01/29 02:00:12;;;;;;;38.28;4.43;;;;;;;22.82;55.52;100521.59;7308339;19;129380;-38
2023/01/29 02:10:54;;;;;;;36.53;3.88;;;;;;;22.77;55.03;100488.81;7307852;19;129259;-38
2023/01/29 02:13:20;;;;;;;51.60;5.33;;;;;;;22.77;55.54;100494.91;7307446;19;129070;-38
2023/01/29 02:15:47;;;;;;;40.80;4.60;;;;;;;22.71;55.08;100476.22;7304141;19;130249;-39
2023/01/29 02:18:13;;;;;;;;;;;;;;;22.82;56.06;100484.88;7307805;19;130887;-36
2023/01/29 02:20:42;;;;;;;40.70;4.68;;;;;;;22.76;56.01;100489.75;7307130;19;130594;-36
2023/01/29 02:23:26;;;;;;;47.40;4.90;;;;;;;22.74;55.49;100475.97;7306499;19;129365;-42
2023/01/29 02:26:17;;;;;;;42.38;4.68;;;;;;;22.73;55.96;100487.41;7303807;19;131033;-38
2023/01/29 02:29:29;;;;;;;62.83;6.18;;;;;;;22.76;55.41;100495.00;7298092;19;129996;-41
2023/01/29 02:32:16;;;;;;;40.15;4.03;;;;;;;22.72;55.80;100494.44;7306986;19;129732;-39
2023/01/29 02:38:26;;;;;;;35.63;4.05;;;;;;;22.71;56.10;100494.56;7305880;19;129310;-39
2023/01/29 02:40:56;;;;;;;43.55;4.55;;;;;;;22.68;55.82;100481.69;7305745;19;129378;-37
2023/01/29 02:43:24;;;;;;;33.72;3.92;;;;;;;22.68;55.29;100492.19;7305699;19;129081;-37
2023/01/29 02:46:00;;;;;;;38.55;4.43;;;;;;;22.67;55.63;100494.00;7303506;19;129285;-36
2023/01/29 02:48:44;;;;;;;51.38;5.43;;;;;;;22.63;55.50;100494.34;7304741;19;130533;-39
2023/01/29 02:51:19;;;;;;;53.17;5.60;;;;;;;22.66;55.67;100489.69;7304835;19;129532;-37
2023/01/29 02:53:57;;;;;;;47.88;4.63;;;;;;;22.65;56.23;100495.91;7306166;19;129279;-39
2023/01/29 02:56:43;;;;;;;27.63;3.00;;;;;;;22.64;55.92;100498.66;7302585;19;129202;-41
2023/01/29 02:59:15;;;;;;;36.83;4.30;;;;;;;22.61;56.17;100491.03;7304727;19;130101;-38
2023/01/29 03:02:07;;;;;;;37.85;4.47;;;;;;;22.65;55.85;100495.06;7305506;19;129601;-38
2023/01/29 03:04:41;;;;;;;40.88;4.63;;;;;;;22.59;55.46;100496.38;7305287;19;129639;-39
2023/01/29 03:07:39;;;;;;;56.45;6.07;;;;;;;22.57;55.46;100494.84;7301767;19;130261;-38
2023/01/29 03:09:56;;;;;;;47.63;4.82;;;;;;;22.61;55.80;100496.28;7304834;19;130226;-37
2023/01/29 03:12:32;;;;;;;37.63;3.80;;;;;;;22.58;55.51;100497.34;7304212;19;129722;-40
2023/01/29 03:15:11;;;;;;;39.63;4.00;;;;;;;22.59;55.95;100493.75;7304482;19;130826;-39
2023/01/29 03:17:55;;;;;;;70.40;6.93;;;;;;;22.57;56.16;100495.69;7303139;19;129065;-39
2023/01/29 03:20:28;;;;;;;56.40;5.78;;;;;;;22.58;55.95;100499.97;7304490;19;129657;-38
2023/01/29 03:23:02;;;;;;;39.03;3.97;;;;;;;22.58;55.95;100491.25;7302177;19;129205;-36
2023/01/29 03:34:06;;;;;;;44.83;4.50;;;;;;;22.54;55.82;100489.84;7305820;19;130569;-37
2023/01/29 03:36:44;;;;;;;22.73;2.92;;;;;;;22.52;55.82;100489.09;7302536;19;129291;-38
2023/01/29 03:39:12;;;;;;;50.95;5.30;;;;;;;22.53;55.45;100493.41;7302128;19;129311;-40
2023/01/29 03:41:48;;;;;;;27.10;3.45;;;;;;;22.52;56.34;100487.34;7303798;19;129546;-38
2023/01/29 03:44:29;;;;;;;46.42;4.82;;;;;;;22.49;56.18;100487.59;7303460;19;130479;-38
2023/01/29 03:47:20;;;;;;;59.38;5.85;;;;;;;22.49;56.08;100490.22;7304417;19;129499;-39
2023/01/29 03:49:58;;;;;;;59.65;5.63;;;;;;;22.51;55.89;100485.66;7308050;19;130343;-40
2023/01/29 03:52:33;;;;;;;37.50;3.92;;;;;;;22.49;56.24;100484.13;7312103;19;130286;-39
2023/01/29 03:55:39;;;;;;;21.50;2.88;;;;;;;22.51;56.06;100490.06;7310915;19;129381;-39
2023/01/29 03:58:19;;;;;;;54.28;5.47;;;;;;;22.51;56.03;100501.38;7310405;19;129287;-39
2023/01/29 04:00:56;;;;;;;54.35;5.20;;;;;;;22.48;55.96;100495.53;7311236;19;129991;-39
2023/01/29 04:03:37;;;;;;;37.97;3.97;;;;;;;22.47;55.69;100499.13;7312172;19;130628;-36
2023/01/29 04:06:26;;;;;;;46.47;4.97;;;;;;;22.48;56.04;100495.53;7307016;19;129621;-40
2023/01/29 04:08:59;;;;;;;37.22;3.97;;;;;;;22.46;56.03;100494.84;7310255;19;129239;-38
2023/01/29 04:11:27;;;;;;;46.72;4.85;;;;;;;22.44;56.20;100489.75;7310535;19;129295;-38
2023/01/29 04:13:53;;;;;;;35.58;3.78;;;;;;;22.38;55.69;100471.88;7310707;19;129735;-38
2023/01/29 04:16:24;;;;;;;50.30;4.82;;;;;;;22.45;56.08;100477.44;7308872;19;130323;-38
2023/01/29 04:18:50;;;;;;;41.85;4.20;;;;;;;22.43;55.65;100471.53;7309432;19;129074;-37
2023/01/29 04:21:16;;;;;;;39.37;4.10;;;;;;;22.41;55.36;100460.31;7311189;19;129323;-38
2023/01/29 04:23:41;;;;;;;24.08;3.20;;;;;;;22.42;56.08;100462.81;7308024;19;129386;-39
2023/01/29 04:26:29;;;;;;;44.13;4.95;;;;;;;22.46;56.53;100460.78;7307028;19;130343;-39
2023/01/29 04:28:57;;;;;;;49.03;4.77;;;;;;;22.41;56.34;100461.13;7309511;19;130108;-42
2023/01/29 04:31:33;;;;;;;37.83;4.30;;;;;;;22.41;56.17;100457.72;7310490;19;129073;-40
2023/01/29 04:34:27;;;;;;;24.92;2.95;;;;;;;22.42;56.01;100454.13;7310714;19;130794;-38
2023/01/29 04:37:13;;;;;;;44.42;4.90;;;;;;;22.41;56.32;100442.00;7306660;19;131009;-39
2023/01/29 04:39:47;;;;;;;41.63;4.55;;;;;;;22.39;55.89;100451.75;7310888;19;129306;-39
2023/01/29 04:42:22;;;;;;;57.42;5.45;;;;;;;22.39;56.02;100449.13;7309474;19;129753;-37
2023/01/29 04:45:17;;;;;;;36.20;3.75;;;;;;;22.40;56.27;100442.94;7309000;19;129884;-38
2023/01/29 04:48:29;;;;;;;43.25;4.43;;;;;;;22.38;56.09;100444.88;7306599;19;130179;-38
2023/01/29 04:51:19;;;;;;;37.40;3.58;;;;;;;22.37;56.63;100435.31;7309274;19;131615;-39
2023/01/29 04:53:47;;;;;;;46.45;4.93;;;;;;;22.36;56.51;100433.66;7310591;19;129097;-38
2023/01/29 04:56:36;;;;;;;48.33;5.18;;;;;;;22.37;55.89;100419.59;7305907;19;129117;-38
2023/01/29 04:59:06;;;;;;;41.15;4.05;;;;;;;22.34;56.02;100420.69;7307819;19;131131;-39
2023/01/29 05:01:34;;;;;;;24.90;2.83;;;;;;;22.31;56.08;100415.72;7309878;19;129209;-37
2023/01/29 05:04:04;;;;;;;48.50;4.43;;;;;;;22.32;56.25;100412.13;7308753;19;129354;-38
2023/01/29 05:06:30;;;;;;;56.70;5.35;;;;;;;22.32;55.91;100404.25;7305891;19;129376;-39
2023/01/29 05:08:56;;;;;;;;;;;;;;;22.38;56.15;100398.50;7310668;19;129878;-38
2023/01/29 05:11:24;;;;;;;37.28;3.88;;;;;;;22.32;56.09;100399.03;7310410;19;129506;-37
2023/01/29 05:13:49;;;;;;;39.50;4.28;;;;;;;22.31;55.66;100393.91;7308937;19;130058;-39
2023/01/29 05:16:26;;;;;;;52.00;5.13;;;;;;;22.30;56.65;100397.47;7304684;19;131115;-40
2023/01/29 05:18:52;;;;;;;38.40;3.78;;;;;;;22.28;56.18;100399.41;7308380;19;130773;-41
2023/01/29 05:21:18;;;;;;;45.05;4.60;;;;;;;22.27;56.19;100388.09;7308768;19;130320;-36
2023/01/29 05:23:52;;;;;;;42.55;3.97;;;;;;;22.27;55.71;100395.09;7304803;19;129546;-39
2023/01/29 05:29:03;;;;;;;40.00;4.05;;;;;;;22.27;56.30;100392.47;7308938;19;129487;-42
2023/01/29 05:31:28;;;;;;;34.40;3.77;;;;;;;22.26;55.78;100390.84;7308290;19;129073;-39
2023/01/29 05:33:54;;;;;;;35.10;3.50;;;;;;;22.26;56.34;100391.69;7310206;19;129991;-38
2023/01/29 05:36:20;;;;;;;39.58;4.25;;;;;;;22.24;55.80;100383.09;7304096;19;130076;-36
2023/01/29 05:38:45;;;;;;;44.08;4.25;;;;;;;22.26;55.86;100396.06;7307186;19;131178;-39
2023/01/29 05:41:10;;;;;;;41.70;4.20;;;;;;;22.24;55.63;100387.50;7307828;19;129345;-40
2023/01/29 05:43:36;;;;;;;34.70;3.83;;;;;;;22.23;55.99;100380.59;7307840;19;129147;-38
2023/01/29 05:46:01;;;;;;;38.45;3.92;;;;;;;22.23;56.07;100380.59;7304924;19;130204;-37
2023/01/29 05:48:28;;;;;;;45.97;4.60;;;;;;;22.22;55.91;100386.78;7306107;19;129586;-37
2023/01/29 05:50:59;;;;;;;32.90;3.28;;;;;;;22.21;56.40;100378.13;7309698;19;129450;-40
2023/01/29 05:53:24;;;;;;;49.35;5.03;;;;;;;22.20;56.20;100381.69;7307157;19;130196;-38
2023/01/29 05:55:49;;;;;;;22.17;2.63;;;;;;;22.21;56.09;100377.28;7305493;19;129211;-37
2023/01/29 05:58:15;;;;;;;40.20;4.07;;;;;;;22.21;56.01;100377.28;7307665;19;130595;-38
2023/01/29 06:00:40;;;;;;;32.15;3.60;;;;;;;22.17;55.78;100376.69;7306821;19;131075;-39
2023/01/29 06:03:06;;;;;;;31.42;3.08;;;;;;;22.18;56.19;100393.25;7308809;19;130083;-39
2023/01/29 06:05:32;;;;;;;74.88;7.55;;;;;;;22.19;56.57;100402.75;7304858;19;129777;-38
2023/01/29 06:07:57;;;;;;;36.30;3.47;;;;;;;22.16;55.73;100400.38;7304353;19;130870;-37
2023/01/29 06:10:23;;;;;;;25.83;2.77;;;;;;;22.18;56.40;100399.28;7305039;19;130383;-40
2023/01/29 06:12:48;;;;;;;33.87;3.23;;;;;;;22.17;56.49;100391.56;7307569;19;128966;-41
2023/01/29 06:15:18;;;;;;;35.72;4.28;;;;;;;22.16;56.39;100387.28;7306281;19;129916;-37
2023/01/29 06:17:44;;;;;;;44.50;4.22;;;;;;;22.16;56.49;100397.78;7304513;19;129368;-39
2023/01/29 06:20:09;;;;;;;23.35;2.60;;;;;;;22.16;55.80;100405.63;7307020;19;129085;-39
2023/01/29 06:22:35;;;;;;;59.70;5.77;;;;;;;22.17;56.42;100420.38;7303423;19;130503;-39
2023/01/29 06:25:00;;;;;;;48.33;4.25;;;;;;;22.15;56.33;100422.31;7305346;19;129949;-39
2023/01/29 06:27:26;;;;;;;72.18;7.07;;;;;;;22.15;56.01;100432.78;7300611;19;129410;-39
2023/01/29 06:29:51;;;;;;;35.53;3.67;;;;;;;22.15;56.76;100430.16;7306136;19;130267;-39
2023/01/29 06:32:16;;;;;;;23.10;2.60;;;;;;;22.14;56.25;100428.47;7306134;19;130143;-39
2023/01/29 06:34:42;;;;;;;36.70;3.85;;;;;;;22.13;56.34;100434.69;7305451;19;129799;-41
2023/01/29 06:37:07;;;;;;;50.27;4.67;;;;;;;22.14;56.40;100428.47;7305461;19;129956;-40
2023/01/29 06:39:33;;;;;;;37.13;3.73;;;;;;;22.11;56.59;100437.44;7305877;19;129951;-40
2023/01/29 06:41:58;;;;;;;29.98;2.88;;;;;;;22.03;56.42;100420.66;7308280;19;131961;-38
2023/01/29 06:44:23;;;;;;;47.03;4.35;;;;;;;22.12;56.14;100427.75;7305641;19;129840;-40
2023/01/29 06:46:49;;;;;;;33.78;3.55;;;;;;;22.10;55.79;100437.56;7303888;19;130015;-38
2023/01/29 06:49:14;;;;;;;46.88;4.55;;;;;;;22.10;56.38;100437.56;7305241;19;129469;-38
2023/01/29 06:51:39;;;;;;;51.30;5.03;;;;;;;22.10;56.35;100442.78;7304529;19;132397;-38
2023/01/29 06:54:07;;;;;;;58.25;5.65;;;;;;;22.10;56.71;100454.09;7305338;19;129154;-38
2023/01/29 06:56:33;;;;;;;42.47;4.40;;;;;;;22.08;55.81;100469.06;7300565;19;130069;-42
2023/01/29 06:58:59;;;;;;;40.33;4.23;;;;;;;22.06;56.59;100478.03;7306205;19;129713;-39
2023/01/29 07:01:24;;;;;;;46.08;4.15;;;;;;;22.07;56.42;100485.75;7306436;19;129287;-37
2023/01/29 07:03:50;;;;;;;45.13;4.43;;;;;;;22.07;56.66;100477.91;7306309;19;129414;-37
2023/01/29 07:06:16;;;;;;;37.85;3.78;;;;;;;22.07;56.79;100479.66;7302753;19;129416;-39
2023/01/29 07:08:41;;;;;;;37.58;3.75;;;;;;;22.06;55.84;100488.50;7302311;19;129516;-38
2023/01/29 07:11:07;;;;;;;27.00;3.13;;;;;;;22.05;56.18;100487.66;7305365;19;129494;-39
2023/01/29 07:13:33;;;;;;;49.63;4.77;;;;;;;22.05;56.89;100494.69;7305151;19;129323;-40
2023/01/29 07:16:00;;;;;;;30.55;3.17;;;;;;;22.06;56.69;100493.72;7303034;19;130271;-39
2023/01/29 07:18:26;;;;;;;;;;;;;;;22.11;56.68;100502.06;7304509;19;128974;-39
2023/01/29 07:20:51;;;;;;;38.38;3.85;;;;;;;21.94;56.16;100479.81;7306454;19;129279;-38
2023/01/29 07:23:17;;;;;;;55.70;5.13;;;;;;;22.01;56.37;100488.88;7311454;19;129583;-38
2023/01/29 07:25:42;;;;;;;51.80;4.60;;;;;;;22.04;56.74;100493.00;7310069;19;129891;-38
2023/01/29 07:28:08;;;;;;;44.67;4.40;;;;;;;22.01;56.03;100486.25;7307868;19;129489;-38
2023/01/29 07:30:34;;;;;;;37.00;3.80;;;;;;;22.02;56.28;100481.81;7310998;19;129160;-40
2023/01/29 07:33:02;;;;;;;42.17;4.00;;;;;;;22.01;56.38;100470.53;7307742;19;130494;-40
2023/01/29 07:35:28;;;;;;;83.35;8.45;;;;;;;22.01;56.53;100480.16;7308098;19;130518;-38
2023/01/29 07:37:53;;;;;;;44.53;4.15;;;;;;;21.90;56.37;100457.44;7311686;19;129628;-38
2023/01/29 07:40:19;;;;;;;40.55;3.80;;;;;;;22.01;56.97;100480.16;7311552;19;130105;-37
2023/01/29 07:42:44;;;;;;;48.10;4.63;;;;;;;22.01;56.71;100474.94;7309908;19;129551;-40
2023/01/29 07:45:10;;;;;;;46.80;4.85;;;;;;;22.00;56.70;100478.50;7310691;19;129924;-39
2023/01/29 07:47:36;;;;;;;52.55;4.93;;;;;;;21.92;56.66;100456.38;7307099;19;129093;-37
2023/01/29 07:50:02;;;;;;;34.78;3.47;;;;;;;21.91;56.25;100452.06;7312715;19;129015;-39
2023/01/29 07:52:29;;;;;;;41.30;3.90;;;;;;;21.95;56.36;100456.13;7311692;19;131038;-39
2023/01/29 07:54:54;;;;;;;;;;;;;;;22.04;56.55;100448.50;7310714;19;129753;-37
2023/01/29 07:57:20;;;;;;;119.32;12.07;;;;;;;21.98;56.50;100449.00;7302946;19;129483;-39
2023/01/29 07:59:45;;;;;;;42.08;3.80;;;;;;;21.95;56.74;100450.91;7307925;19;129471;-38
2023/01/29 08:02:11;;;;;;;34.92;3.35;;;;;;;21.87;56.24;100421.03;7311558;19;129385;-38
2023/01/29 08:04:37;;;;;;;44.90;4.27;;;;;;;21.95;56.46;100435.19;7310254;19;129679;-39
2023/01/29 08:07:03;;;;;;;35.47;3.47;;;;;;;21.95;56.77;100434.34;7308121;19;129340;-39
2023/01/29 08:09:29;;;;;;;59.10;5.57;;;;;;;21.93;56.93;100434.47;7310465;19;129161;-39
2023/01/29 08:11:54;;;;;;;42.67;4.13;;;;;;;21.93;56.71;100431.84;7310065;19;129517;-39
2023/01/29 08:14:20;;;;;;;34.20;3.03;;;;;;;21.84;56.55;100416.88;7309050;19;130696;-38
2023/01/29 08:16:45;;;;;;;26.97;2.97;;;;;;;21.92;56.48;100424.97;7305393;19;129535;-39
2023/01/29 08:19:10;;;;;;;68.32;6.60;;;;;;;21.91;57.06;100418.03;7302809;19;130375;-38
2023/01/29 08:21:35;;;;;;;42.03;4.50;;;;;;;21.93;56.84;100416.16;7309522;19;129306;-38
2023/01/29 08:24:01;;;;;;;37.35;3.63;;;;;;;21.92;56.82;100411.88;7310475;19;129373;-38
2023/01/29 08:26:26;;;;;;;66.93;6.07;;;;;;;21.90;56.13;100413.78;7301489;19;129143;-37
2023/01/29 08:28:52;;;;;;;54.63;4.78;;;;;;;21.90;56.66;100416.41;7309050;19;130926;-38
2023/01/29 08:31:19;;;;;;;37.33;3.87;;;;;;;21.89;56.74;100414.75;7302723;19;129879;-37
2023/01/29 08:33:45;;;;;;;36.40;3.45;;;;;;;21.87;56.78;100415.78;7302908;19;132735;-39
2023/01/29 08:36:11;;;;;;;55.08;5.05;;;;;;;21.87;56.58;100411.41;7307297;19;129305;-38
2023/01/29 08:38:36;;;;;;;69.57;6.60;;;;;;;21.88;56.83;100420.91;7307311;19;130267;-38
2023/01/29 08:41:02;;;;;;;39.47;4.00;;;;;;;21.89;56.50;100416.50;7308841;19;129609;-37
2023/01/29 08:43:27;;;;;;;31.27;3.20;;;;;;;21.77;56.42;100409.63;7309307;19;130788;-38
2023/01/29 08:45:52;;;;;;;38.33;3.35;;;;;;;21.88;56.70;100433.19;7306454;19;129204;-38
2023/01/29 08:48:18;;;;;;;49.40;4.57;;;;;;;21.90;56.21;100431.25;7303610;19;129767;-41
2023/01/29 08:50:43;;;;;;;38.33;4.32;;;;;;;21.90;56.54;100429.47;7308909;19;129716;-38
2023/01/29 08:53:09;;;;;;;49.67;6.05;;;;;;;21.93;55.74;100437.09;7305401;19;129808;-39
2023/01/29 08:55:36;;;;;;;81.47;8.47;;;;;;;21.95;54.77;100432.56;7306686;19;129614;-41
2023/01/29 08:58:04;;;;;;;43.25;5.28;;;;;;;21.87;54.87;100424.50;7308441;19;128907;-38
2023/01/29 09:00:29;;;;;;;44.17;5.50;;;;;;;21.95;53.74;100432.56;7310647;19;130736;-38
2023/01/29 09:02:55;;;;;;;40.88;4.97;;;;;;;21.93;53.53;100421.38;7304715;19;130253;-38
2023/01/29 09:05:20;;;;;;;91.53;10.15;;;;;;;21.87;53.21;100416.63;7297487;19;129707;-40
2023/01/29 09:07:46;;;;;;;67.95;6.95;;;;;;;21.86;52.15;100409.75;7302751;19;129371;-38
2023/01/29 09:10:12;;;;;;;71.60;7.17;;;;;;;21.84;53.26;100409.03;7299493;19;130283;-39
2023/01/29 09:12:37;;;;;;;71.93;7.07;;;;;;;21.82;51.42;100405.69;7302345;19;131002;-40
2023/01/29 09:15:03;;;;;;;55.85;4.88;;;;;;;21.80;52.30;100407.59;7306823;19;129519;-40
2023/01/29 09:17:28;;;;;;;63.90;6.77;;;;;;;21.83;51.31;100422.25;7286349;19;129559;-39
2023/01/29 09:19:53;;;;;;;45.07;4.67;;;;;;;21.86;50.74;100420.22;7309039;19;130615;-41
2023/01/29 09:22:19;;;;;;;43.17;5.10;;;;;;;21.87;51.64;100411.41;7301507;19;129423;-37
2023/01/29 09:24:44;;;;;;;67.17;6.80;;;;;;;21.92;51.33;100398.78;7307190;19;129755;-39
2023/01/29 09:27:10;;;;;;;51.17;5.30;;;;;;;21.98;51.45;100396.63;7305929;19;129350;-38
2023/01/29 09:29:36;;;;;;;40.38;4.22;;;;;;;21.96;51.43;100396.75;7306096;19;129563;-37
2023/01/29 09:32:03;;;;;;;40.57;4.57;;;;;;;22.02;52.03;100398.88;7308425;19;129793;-38
2023/01/29 09:34:29;;;;;;;51.80;5.10;;;;;;;21.91;51.78;100391.06;7307763;19;129383;-39
2023/01/29 09:36:54;;;;;;;35.83;3.95;;;;;;;22.01;51.66;100407.69;7306070;19;129654;-38
2023/01/29 09:39:19;;;;;;;45.63;4.40;;;;;;;21.98;52.89;100407.09;7306638;19;130140;-39
2023/01/29 09:42:02;;;;;;;41.95;4.75;;;;;;;21.98;54.08;100417.56;7307430;19;129777;-38
2023/01/29 09:44:30;;;;;;;48.58;4.82;;;;;;;21.98;52.83;100405.31;7306449;19;130039;-38
2023/01/29 09:46:59;;;;;;;46.17;4.57;;;;;;;22.03;52.95;100410.19;7307642;19;130887;-38
2023/01/29 09:49:34;;;;;;;36.55;3.75;;;;;;;22.03;53.87;100399.72;7307775;19;129933;-40
2023/01/29 09:52:02;;;;;;;60.00;6.20;;;;;;;22.08;53.32;100387.91;7306054;19;130108;-38
2023/01/29 09:55:01;;;;;;;38.33;4.30;;;;;;;21.96;53.75;100368.75;7305355;19;129448;-40
2023/01/29 09:57:36;;;;;;;64.85;6.18;;;;;;;21.98;54.43;100365.22;7305169;19;129951;-39
2023/01/29 10:00:02;;;;;;;32.88;3.60;;;;;;;21.94;53.92;100368.09;7307052;19;129712;-38
2023/01/29 10:02:53;;;;;;;66.30;6.20;;;;;;;21.93;53.46;100362.97;7306791;19;129797;-38
2023/01/29 10:05:37;;;;;;;56.15;5.97;;;;;;;21.92;54.22;100358.66;7304413;19;130414;-40
2023/01/29 10:08:11;;;;;;;46.72;4.78;;;;;;;21.89;53.87;100362.38;7306328;19;129445;-39
2023/01/29 10:10:54;;;;;;;53.80;5.63;;;;;;;21.89;54.24;100357.16;7304230;19;129384;-39
2023/01/29 10:13:43;;;;;;;51.38;5.18;;;;;;;21.91;54.08;100365.69;7305267;19;129739;-39
2023/01/29 10:16:14;;;;;;;40.42;4.28;;;;;;;21.88;53.67;100365.94;7305706;19;128848;-41
2023/01/29 10:18:45;;;;;;;51.38;5.50;;;;;;;21.85;53.05;100365.34;7305560;19;129789;-40
2023/01/29 10:21:31;;;;;;;36.03;4.20;;;;;;;21.83;53.91;100370.69;7307355;19;130138;-39
2023/01/29 10:24:10;;;;;;;37.20;3.90;;;;;;;21.82;54.10;100371.66;7306807;19;129701;-37
2023/01/29 10:26:37;;;;;;;43.42;4.70;;;;;;;21.81;53.85;100370.03;7302463;19;130219;-38
2023/01/29 10:29:06;;;;;;;40.90;4.03;;;;;;;21.81;54.43;100369.19;7307913;19;129915;-39
2023/01/29 10:31:37;;;;;;;42.95;4.90;;;;;;;21.80;53.32;100370.94;7306975;19;130379;-39
2023/01/29 10:34:13;;;;;;;35.80;3.75;;;;;;;21.74;53.08;100362.72;7307362;19;129851;-40
2023/01/29 10:36:47;;;;;;;38.50;4.30;;;;;;;21.82;53.34;100366.44;7303357;19;130662;-38
2023/01/29 10:39:19;;;;;;;35.15;3.80;;;;;;;21.79;53.36;100371.06;7309323;19;129051;-40
2023/01/29 10:42:12;;;;;;;41.80;4.60;;;;;;;21.77;53.98;100363.34;7302766;19;130986;-39
2023/01/29 10:45:02;;;;;;;32.20;3.80;;;;;;;21.79;53.35;100358.84;7308001;19;131822;-40
2023/01/29 10:47:37;;;;;;;35.22;4.82;;;;;;;21.81;53.43;100358.72;7305818;19;129747;-38
2023/01/29 10:50:22;;;;;;;27.65;3.35;;;;;;;21.81;53.60;100353.47;7308953;19;129041;-39
2023/01/29 10:53:05;;;;;;;44.30;4.45;;;;;;;21.81;52.97;100343.84;7309444;19;129931;-37
2023/01/29 10:55:52;;;;;;;91.38;9.45;;;;;;;21.80;54.19;100323.84;7303964;19;130878;-38
2023/01/29 10:58:18;;;;;;;63.33;6.10;;;;;;;21.84;53.10;100317.41;7306032;19;129444;-39
2023/01/29 11:00:44;;;;;;;85.20;8.57;;;;;;;21.87;52.11;100311.94;7306396;19;130123;-39
2023/01/29 11:03:15;;;;;;;34.13;4.13;;;;;;;21.91;53.20;100307.28;7308345;19;129121;-38
2023/01/29 11:05:50;;;;;;;35.10;4.18;;;;;;;21.88;53.72;100310.16;7305106;19;130484;-39
2023/01/29 11:08:19;;;;;;;40.35;4.45;;;;;;;21.87;53.21;100306.69;7306376;19;129599;-40
2023/01/29 11:10:57;;;;;;;42.92;4.88;;;;;;;21.87;52.80;100301.44;7308400;19;129464;-38
2023/01/29 11:13:25;;;;;;;;;;;;;;;21.90;53.62;100293.34;7307938;19;129330;-40
2023/01/29 11:15:51;;;;;;;25.25;3.45;;;;;;;21.77;53.00;100279.59;7306228;19;131013;-38
2023/01/29 11:18:17;;;;;;;38.22;4.10;;;;;;;21.86;52.48;100289.34;7307134;19;129581;-36
2023/01/29 11:20:44;;;;;;;42.07;4.23;;;;;;;21.95;52.33;100283.34;7308577;19;129241;-39
2023/01/29 11:23:29;;;;;;;22.27;3.03;;;;;;;21.96;53.89;100274.50;7307629;19;129063;-38
2023/01/29 11:25:57;;;;;;;37.00;4.13;;;;;;;21.98;51.83;100276.19;7304890;19;129827;-37
2023/01/29 11:28:39;;;;;;;27.02;4.07;;;;;;;22.04;53.16;100275.69;7303570;19;131152;-39
2023/01/29 11:31:15;;;;;;;22.88;3.22;;;;;;;21.98;53.59;100255.25;7307195;19;130669;-38
2023/01/29 11:33:41;;;;;;;54.28;5.85;;;;;;;21.93;52.37;100255.63;7305857;19;129790;-38
2023/01/29 11:36:36;;;;;;;68.18;7.05;;;;;;;21.89;53.71;100252.44;7300739;19;129537;-39
2023/01/29 11:39:14;;;;;;;19.85;2.60;;;;;;;21.95;53.35;100251.91;7303387;19;129893;-39
2023/01/29 11:41:59;;;;;;;59.72;6.45;;;;;;;22.09;52.87;100252.56;7303935;19;131973;-40
2023/01/29 11:44:28;;;;;;;53.60;5.65;;;;;;;22.12;52.77;100257.53;7304128;19;129839;-40
2023/01/29 11:46:57;;;;;;;83.45;8.15;;;;;;;21.93;52.18;100248.59;7300583;19;130243;-38
2023/01/29 11:49:32;;;;;;;28.73;3.42;;;;;;;21.88;53.97;100245.50;7304876;19;128953;-39
2023/01/29 11:52:01;;;;;;;78.72;7.70;;;;;;;21.96;53.60;100252.75;7302802;19;129377;-39
2023/01/29 11:54:31;;;;;;;36.78;4.00;;;;;;;21.89;54.31;100257.66;7297512;19;130278;-38